Terminal Aerodrome Forecast
Issued by NWS Pocatello, ID

Home | Current Version | Previous Version | Text Only | Print | Product List | Glossary On
Versions: 1 2 3 4 5 6 7 8 9 10 11 12 13 14 15 16 17 18
016
FTUS45 KPIH 190521
TAFPIH
TAF
KPIH 190521Z 1906/2006 VRB05KT P6SM OVC080 WS005/16030KT
     FM190700 VRB06KT 1SM -SN BR BKN020 OVC040 WS008/16030KT
     FM191200 18011G21KT 3SM -SHSN BR BKN015 OVC030
     FM191600 21011KT 1SM -SN BR BKN008 OVC015
     FM192100 24011KT 5SM -SHSN BR BKN010 OVC020=

USA.gov is the U.S. government's official web portal to all federal, state and local government web resources and services.